createdAt,value
2023-01-26T00:00:19.246Z,8.2
2023-01-26T00:01:35.556Z,7.8
2023-01-26T00:02:51.840Z,7.1
2023-01-26T00:04:08.140Z,6.6
2023-01-26T00:05:24.419Z,6.9
2023-01-26T00:06:40.714Z,6.5
2023-01-26T00:07:57.016Z,6.9
2023-01-26T00:09:13.297Z,6.4
2023-01-26T00:10:28.613Z,5.8
2023-01-26T00:11:44.912Z,5.6
2023-01-26T00:13:01.212Z,5.9
2023-01-26T00:14:17.491Z,5.9
2023-01-26T00:15:33.798Z,6.5
2023-01-26T00:16:50.080Z,6.5
2023-01-26T00:18:06.382Z,5.8
2023-01-26T00:19:22.672Z,6.1
2023-01-26T00:20:38.956Z,5.9
2023-01-26T00:21:55.254Z,6.4
2023-01-26T00:23:11.554Z,6.3
2023-01-26T00:24:27.849Z,6.5
2023-01-26T00:25:44.136Z,5.7
2023-01-26T00:26:59.456Z,6.1
2023-01-26T00:28:15.746Z,6.5
2023-01-26T00:29:32.044Z,6.2
2023-01-26T00:30:48.338Z,6.2
2023-01-26T00:32:04.632Z,6.1
2023-01-26T00:33:20.921Z,6.9
2023-01-26T00:34:37.201Z,6.2
2023-01-26T00:35:53.502Z,6.7
2023-01-26T00:37:09.796Z,6.5
2023-01-26T00:38:26.081Z,6.1
2023-01-26T00:39:42.387Z,7.1
2023-01-26T00:40:58.672Z,7.7
2023-01-26T00:42:14.967Z,6.1
2023-01-26T00:43:30.275Z,7
2023-01-26T00:44:46.579Z,6.6
2023-01-26T00:46:02.863Z,7.4
2023-01-26T00:47:19.157Z,6.2
2023-01-26T00:48:35.463Z,6.2
2023-01-26T00:49:51.743Z,6.3
2023-01-26T00:51:08.046Z,6.4
2023-01-26T00:52:24.328Z,6.3
2023-01-26T00:53:40.619Z,6.9
2023-01-26T00:54:56.928Z,6.6
2023-01-26T00:56:13.215Z,7.1
2023-01-26T00:57:29.511Z,7.4
2023-01-26T00:58:45.799Z,7
2023-01-26T01:00:01.105Z,7.7
2023-01-26T01:01:17.403Z,7.7
2023-01-26T01:02:33.695Z,7.8
2023-01-26T01:03:49.996Z,7.6
2023-01-26T01:05:06.279Z,7.3
2023-01-26T01:06:22.584Z,7.6
2023-01-26T01:07:38.874Z,7.9
2023-01-26T01:08:55.158Z,7.1
2023-01-26T01:10:11.458Z,8.2
2023-01-26T01:11:27.748Z,7.1
2023-01-26T01:12:44.039Z,7.1
2023-01-26T01:14:00.337Z,7.6
2023-01-26T01:15:16.630Z,7.6
2023-01-26T01:16:31.948Z,7.4
2023-01-26T01:17:48.234Z,7.3
2023-01-26T01:19:04.519Z,8.1
2023-01-26T01:20:20.814Z,7.6
2023-01-26T01:21:37.123Z,8.5
2023-01-26T01:22:53.419Z,8.5
2023-01-26T01:24:09.703Z,8.3
2023-01-26T01:25:25.996Z,7.9
2023-01-26T01:26:42.288Z,7.8
2023-01-26T01:27:58.577Z,7.3
2023-01-26T01:29:14.887Z,8.2
2023-01-26T01:30:31.181Z,8.2
2023-01-26T01:31:47.461Z,8.4
2023-01-26T01:33:02.784Z,7.9
2023-01-26T01:34:19.060Z,7.8
2023-01-26T01:35:35.363Z,6.8
2023-01-26T01:36:51.650Z,7.5
2023-01-26T01:38:07.946Z,8.2
2023-01-26T01:39:24.245Z,7.6
2023-01-26T01:40:40.534Z,8.1
2023-01-26T01:41:56.822Z,7.1
2023-01-26T01:43:13.121Z,7.7
2023-01-26T01:44:29.413Z,7.5
2023-01-26T01:45:45.702Z,7.7
2023-01-26T01:47:02.002Z,8
2023-01-26T01:48:18.304Z,7.2
2023-01-26T01:49:33.595Z,7.7
2023-01-26T01:50:49.894Z,7.3
2023-01-26T01:52:06.189Z,7.9
2023-01-26T01:53:22.493Z,7.6
2023-01-26T01:54:38.787Z,8
2023-01-26T01:55:55.066Z,7.4
2023-01-26T01:57:11.368Z,8.3
2023-01-26T01:58:27.652Z,7.3
2023-01-26T01:59:43.961Z,9
2023-01-26T02:01:00.256Z,8.1
2023-01-26T02:02:16.549Z,8
2023-01-26T02:03:32.836Z,7.8
2023-01-26T02:04:49.137Z,8
2023-01-26T02:06:04.443Z,7.9
2023-01-26T02:07:20.733Z,7.8
2023-01-26T02:08:37.031Z,7.9
2023-01-26T02:09:53.316Z,7.9
2023-01-26T02:11:09.615Z,8.8
2023-01-26T02:12:25.912Z,8
2023-01-26T02:13:42.202Z,7.9
2023-01-26T02:14:58.481Z,7.8
2023-01-26T02:16:14.786Z,8.8
2023-01-26T02:17:31.077Z,7.6
2023-01-26T02:18:47.365Z,8.5
2023-01-26T02:20:03.666Z,7.6
2023-01-26T02:21:19.953Z,8
2023-01-26T02:22:35.262Z,8
2023-01-26T02:23:51.558Z,8.4
2023-01-26T02:25:07.862Z,7.8
2023-01-26T02:26:24.142Z,7.9
2023-01-26T02:27:40.437Z,8
2023-01-26T02:28:56.741Z,8.3
2023-01-26T02:30:13.029Z,8.8
2023-01-26T02:31:29.324Z,9.1
2023-01-26T02:32:45.620Z,8
2023-01-26T02:34:01.920Z,8.6
2023-01-26T02:35:18.194Z,8.5
2023-01-26T02:36:34.500Z,8.4
2023-01-26T02:37:50.793Z,7.7
2023-01-26T02:39:06.095Z,7.7
2023-01-26T02:40:22.399Z,8
2023-01-26T02:41:38.683Z,8.1
2023-01-26T02:42:54.969Z,8.2
2023-01-26T02:44:11.282Z,8.3
2023-01-26T02:45:27.577Z,9.1
2023-01-26T02:46:43.857Z,8.3
2023-01-26T02:48:00.149Z,7.1
2023-01-26T02:49:16.447Z,8.6
2023-01-26T02:50:32.749Z,7.8
2023-01-26T02:51:49.039Z,7.4
2023-01-26T02:53:05.332Z,8.3
2023-01-26T02:54:21.627Z,7.6
2023-01-26T02:55:36.940Z,8.3
2023-01-26T02:56:53.222Z,8.6
2023-01-26T02:58:09.518Z,8.1
2023-01-26T02:59:25.821Z,8.7
2023-01-26T03:00:42.101Z,8.9
2023-01-26T03:01:58.404Z,8.5
2023-01-26T03:03:14.687Z,8.9
2023-01-26T03:04:30.995Z,9.1
2023-01-26T03:05:47.270Z,9.3
2023-01-26T03:07:03.569Z,9.6
2023-01-26T03:08:19.858Z,10.4
2023-01-26T03:09:36.158Z,9.9
2023-01-26T03:10:52.446Z,9.1
2023-01-26T03:12:07.756Z,9.6
2023-01-26T03:13:24.064Z,10.1
2023-01-26T03:14:40.351Z,9.3
2023-01-26T03:15:56.635Z,9.2
2023-01-26T03:17:12.929Z,9.8
2023-01-26T03:18:29.240Z,9.4
2023-01-26T03:19:45.531Z,9.3
2023-01-26T03:21:01.824Z,8.9
2023-01-26T03:22:18.118Z,9.4
2023-01-26T03:23:34.393Z,8.7
2023-01-26T03:24:50.692Z,9.5
2023-01-26T03:26:06.987Z,9.2
2023-01-26T03:27:23.285Z,10.2
2023-01-26T03:28:38.604Z,9.4
2023-01-26T03:29:54.884Z,9.4
2023-01-26T03:31:11.180Z,10
2023-01-26T03:32:27.475Z,9.1
2023-01-26T03:33:43.777Z,8.9
2023-01-26T03:35:00.055Z,9.6
2023-01-26T03:36:16.364Z,9.2
2023-01-26T03:37:32.659Z,10.1
2023-01-26T03:38:48.932Z,10.7
2023-01-26T03:40:05.227Z,9.1
2023-01-26T03:41:21.533Z,9.9
2023-01-26T03:42:37.827Z,10.3
2023-01-26T03:43:54.115Z,9.2
2023-01-26T03:45:09.416Z,10
2023-01-26T03:46:25.720Z,10
2023-01-26T03:47:42.008Z,9.3
2023-01-26T03:48:58.302Z,9.5
2023-01-26T03:50:14.591Z,8.8
2023-01-26T03:51:30.894Z,10.1
2023-01-26T03:52:47.184Z,10
2023-01-26T03:54:03.477Z,9.8
2023-01-26T03:55:19.771Z,9.1
2023-01-26T03:56:36.072Z,9.6
2023-01-26T03:57:52.354Z,9.7
2023-01-26T03:59:08.652Z,10.4
2023-01-26T04:00:24.944Z,8.6
2023-01-26T04:01:40.259Z,9.5
2023-01-26T04:02:56.539Z,8.7
2023-01-26T04:04:12.840Z,10.3
2023-01-26T04:05:29.134Z,10.1
2023-01-26T04:06:45.437Z,10.6
2023-01-26T04:08:01.732Z,9.5
2023-01-26T04:09:17.041Z,9.9
2023-01-26T04:10:33.328Z,10.1
2023-01-26T04:11:49.631Z,9.3
2023-01-26T04:13:05.920Z,10.8
2023-01-26T04:14:22.206Z,9.3
2023-01-26T04:15:38.511Z,10.8
2023-01-26T04:16:54.805Z,8.8
2023-01-26T04:18:11.089Z,9.2
2023-01-26T04:19:27.378Z,8.4
2023-01-26T04:20:43.670Z,9.5
2023-01-26T04:21:59.980Z,9.7
2023-01-26T04:23:16.256Z,8.4
2023-01-26T04:24:32.568Z,9.9
2023-01-26T04:25:47.865Z,10.1
2023-01-26T04:27:04.154Z,8.6
2023-01-26T04:28:20.459Z,9.2
2023-01-26T04:29:36.757Z,9.1
2023-01-26T04:30:53.043Z,9.7
2023-01-26T04:32:09.330Z,8.3
2023-01-26T04:33:25.620Z,9.6
2023-01-26T04:34:41.929Z,9.3
2023-01-26T04:35:58.214Z,9.9
2023-01-26T04:37:14.512Z,9.1
2023-01-26T04:38:30.793Z,10
2023-01-26T04:39:47.086Z,8.8
2023-01-26T04:41:03.382Z,8.6
2023-01-26T04:42:18.693Z,9.5
2023-01-26T04:43:35.000Z,9.7
2023-01-26T04:44:51.277Z,9
2023-01-26T04:46:07.581Z,9.4
2023-01-26T04:47:23.873Z,9
2023-01-26T04:48:40.160Z,7.6
2023-01-26T04:49:56.454Z,9.2
2023-01-26T04:51:12.755Z,8.4
2023-01-26T04:52:29.047Z,8.5
2023-01-26T04:53:45.341Z,8.3
2023-01-26T04:55:01.629Z,8.7
2023-01-26T04:56:17.923Z,8.8
2023-01-26T04:57:34.212Z,8.1
2023-01-26T04:58:49.532Z,8.2
2023-01-26T05:00:05.829Z,7.8
2023-01-26T05:01:22.116Z,8.7
2023-01-26T05:02:38.409Z,9.1
2023-01-26T05:03:54.695Z,7.7
2023-01-26T05:05:10.997Z,7.8
2023-01-26T05:06:27.289Z,7.9
2023-01-26T05:07:43.576Z,7.1
2023-01-26T05:08:59.876Z,5.7
2023-01-26T05:10:16.167Z,5.9
2023-01-26T05:11:32.462Z,6
2023-01-26T05:12:48.752Z,6.4
2023-01-26T05:14:05.047Z,5.9
2023-01-26T05:15:20.361Z,5.6
2023-01-26T05:16:36.653Z,5.6
2023-01-26T05:17:52.955Z,6.3
2023-01-26T05:19:09.236Z,5.6
2023-01-26T05:20:25.546Z,6.5
2023-01-26T05:21:41.839Z,6
2023-01-26T05:22:58.133Z,6.1
2023-01-26T05:24:14.424Z,5.5
2023-01-26T05:25:30.716Z,5
2023-01-26T05:26:46.997Z,6
2023-01-26T05:28:03.304Z,5.6
2023-01-26T05:29:19.593Z,5
2023-01-26T05:30:35.885Z,4.9
2023-01-26T05:31:51.189Z,5.6
2023-01-26T05:33:07.498Z,5.5
2023-01-26T05:34:23.779Z,5.8
2023-01-26T05:35:40.083Z,5.6
2023-01-26T05:36:56.365Z,5.7
2023-01-26T05:38:12.661Z,4.8
2023-01-26T05:39:28.955Z,5.1
2023-01-26T05:40:45.244Z,5.7
2023-01-26T05:42:01.538Z,6.1
2023-01-26T05:43:17.847Z,5.5
2023-01-26T05:44:34.128Z,5.1
2023-01-26T05:45:50.424Z,5.2
2023-01-26T05:47:06.717Z,4.9
2023-01-26T05:48:22.030Z,5.6
2023-01-26T05:49:38.310Z,5.4
2023-01-26T05:50:54.620Z,4.6
2023-01-26T05:52:10.900Z,5.8
2023-01-26T05:53:27.204Z,5
2023-01-26T05:54:43.502Z,5
2023-01-26T05:55:59.798Z,4.5
2023-01-26T05:57:16.087Z,5
2023-01-26T05:58:32.384Z,5
2023-01-26T05:59:48.679Z,5.2
2023-01-26T06:01:04.955Z,4.4
2023-01-26T06:02:21.251Z,5.1
2023-01-26T06:03:37.549Z,4.8
2023-01-26T06:04:52.859Z,5
2023-01-26T06:06:09.143Z,5.4
2023-01-26T06:07:25.455Z,5.4
2023-01-26T06:08:41.000Z,5.4
2023-01-26T06:09:58.028Z,5
2023-01-26T06:11:14.322Z,5
2023-01-26T06:12:30.627Z,4.6
2023-01-26T06:13:46.918Z,4.9
2023-01-26T06:15:03.210Z,5.2
2023-01-26T06:16:19.493Z,4.9
2023-01-26T06:17:35.800Z,5.5
2023-01-26T06:18:52.084Z,4.6
2023-01-26T06:20:08.379Z,5.5
2023-01-26T06:22:39.988Z,5.7
2023-01-26T06:23:56.276Z,5.4
2023-01-26T06:25:12.568Z,5.7
2023-01-26T06:26:28.864Z,6.5
2023-01-26T06:27:45.104Z,5.2
2023-01-26T06:29:01.401Z,5.5
2023-01-26T06:30:17.685Z,5.3
2023-01-26T06:31:33.950Z,5
2023-01-26T06:32:50.195Z,4.6
2023-01-26T06:34:06.432Z,5.8
2023-01-26T06:35:22.717Z,4.9
2023-01-26T06:36:39.009Z,4.8
2023-01-26T06:37:54.331Z,4.7
2023-01-26T06:39:10.626Z,5.3
2023-01-26T06:40:26.870Z,5.4
2023-01-26T06:41:43.157Z,4.9
2023-01-26T06:42:59.461Z,4.6
2023-01-26T06:44:15.710Z,4.8
2023-01-26T06:45:31.955Z,4.8
2023-01-26T06:46:48.192Z,4.4
2023-01-26T06:48:04.419Z,4.8
2023-01-26T06:49:20.668Z,4.6
2023-01-26T06:50:36.904Z,5.1
2023-01-26T06:51:53.142Z,4.7
2023-01-26T06:53:09.386Z,4.9
2023-01-26T06:54:24.648Z,4.8
2023-01-26T06:55:40.876Z,5.6
2023-01-26T06:56:57.118Z,5.5
2023-01-26T06:58:13.358Z,5.7
2023-01-26T06:59:29.598Z,5.1
2023-01-26T07:00:45.839Z,4.9
2023-01-26T07:02:02.068Z,5.2
2023-01-26T07:03:18.320Z,5.6
2023-01-26T07:04:34.565Z,5.3
2023-01-26T07:05:50.802Z,5.3
2023-01-26T07:07:07.029Z,5.3
2023-01-26T07:08:23.268Z,5.2
2023-01-26T07:09:39.515Z,4.6
2023-01-26T07:10:54.779Z,5.5
2023-01-26T07:12:11.020Z,4.1
2023-01-26T07:13:27.254Z,4.7
2023-01-26T07:14:43.493Z,4.8
2023-01-26T07:15:59.734Z,4.4
2023-01-26T07:17:15.960Z,4.1
2023-01-26T07:18:32.198Z,4
2023-01-26T07:19:48.447Z,5
2023-01-26T07:21:04.685Z,4.8
2023-01-26T07:22:20.920Z,4.4
2023-01-26T07:23:37.173Z,4.8
2023-01-26T07:24:53.403Z,4.8
2023-01-26T07:26:09.644Z,5.2
2023-01-26T07:27:24.912Z,4.6
2023-01-26T07:28:41.132Z,4.6
2023-01-26T07:29:57.376Z,4.3
2023-01-26T07:31:13.616Z,5.3
2023-01-26T07:32:29.873Z,4.7
2023-01-26T07:33:46.112Z,4.8
2023-01-26T07:35:02.351Z,4.7
2023-01-26T07:36:18.576Z,5.9
2023-01-26T07:37:34.825Z,4.6
2023-01-26T07:38:51.059Z,5.2
2023-01-26T07:40:07.309Z,5.1
2023-01-26T07:41:23.536Z,5.5
2023-01-26T07:42:39.781Z,4.2
2023-01-26T07:43:55.032Z,5
2023-01-26T07:45:11.285Z,4.5
2023-01-26T07:46:27.510Z,4.6
2023-01-26T07:47:43.761Z,4.3
2023-01-26T07:48:59.998Z,4.3
2023-01-26T07:50:16.231Z,4.5
2023-01-26T07:51:32.475Z,4.5
2023-01-26T07:52:48.710Z,4.8
2023-01-26T07:54:04.962Z,4.9
2023-01-26T07:55:21.197Z,4.6
2023-01-26T07:56:37.437Z,5
2023-01-26T07:57:53.663Z,5.1
2023-01-26T07:59:09.922Z,4.7
2023-01-26T08:00:25.180Z,4.8
2023-01-26T08:01:41.403Z,5
2023-01-26T08:02:57.647Z,4.2
2023-01-26T08:04:13.883Z,5.5
2023-01-26T08:05:30.119Z,4.5
2023-01-26T08:06:46.366Z,4.8
2023-01-26T08:08:02.601Z,5.4
2023-01-26T08:09:18.844Z,4.7
2023-01-26T08:10:35.091Z,5.2
2023-01-26T08:11:51.321Z,6
2023-01-26T08:13:07.559Z,5.2
2023-01-26T08:14:23.798Z,5
2023-01-26T08:15:40.046Z,4.1
2023-01-26T08:16:55.296Z,4.3
2023-01-26T08:18:11.537Z,4.3
2023-01-26T08:19:27.786Z,5.5
2023-01-26T08:20:44.012Z,5
2023-01-26T08:22:00.250Z,4.6
2023-01-26T08:23:16.504Z,4.3
2023-01-26T08:24:31.770Z,4.7
2023-01-26T08:25:48.008Z,4.6
2023-01-26T08:27:04.243Z,4.7
2023-01-26T08:28:20.489Z,5.1
2023-01-26T08:29:36.726Z,4
2023-01-26T08:30:52.970Z,4.2
2023-01-26T08:32:09.202Z,4.6
2023-01-26T08:33:25.430Z,4.2
2023-01-26T08:34:41.669Z,4.5
2023-01-26T08:35:57.916Z,4.6
2023-01-26T08:37:14.148Z,4.6
2023-01-26T08:38:30.397Z,4.4
2023-01-26T08:39:46.641Z,4.2
2023-01-26T08:41:01.887Z,4.8
2023-01-26T08:42:18.131Z,5.5
2023-01-26T08:43:34.366Z,4.9
2023-01-26T08:44:50.607Z,4.6
2023-01-26T08:46:06.847Z,4.5
2023-01-26T08:47:23.082Z,4.8
2023-01-26T08:48:39.333Z,4.4
2023-01-26T08:49:55.562Z,4.2
2023-01-26T08:51:11.814Z,4.3
2023-01-26T08:52:28.057Z,4.3
2023-01-26T08:53:44.287Z,4.1
2023-01-26T08:55:00.537Z,4.6
2023-01-26T08:56:16.762Z,4.6
2023-01-26T08:57:32.014Z,4
2023-01-26T08:58:48.258Z,3.9
2023-01-26T09:00:04.513Z,3.5
2023-01-26T09:01:20.745Z,3.6
2023-01-26T09:02:36.985Z,3.9
2023-01-26T09:03:53.226Z,4
2023-01-26T09:05:09.456Z,4.2
2023-01-26T09:06:25.700Z,3.9
2023-01-26T09:07:41.933Z,3.5
2023-01-26T09:08:58.183Z,3.9
2023-01-26T09:10:14.419Z,4.2
2023-01-26T09:11:30.651Z,4.3
2023-01-26T09:12:46.895Z,3.7
2023-01-26T09:14:02.152Z,3.7
2023-01-26T09:15:18.391Z,4.4
2023-01-26T09:16:34.635Z,4
2023-01-26T09:17:50.882Z,4.4
2023-01-26T09:19:07.124Z,3.6
2023-01-26T09:20:23.347Z,4.4
2023-01-26T09:21:39.589Z,3.5
2023-01-26T09:22:55.830Z,3.8
2023-01-26T09:24:12.073Z,3.6
2023-01-26T09:25:28.317Z,3.5
2023-01-26T09:26:44.551Z,3.7
2023-01-26T09:28:00.783Z,3.7
2023-01-26T09:29:17.030Z,3.5
2023-01-26T09:30:32.295Z,3.2
2023-01-26T09:31:48.529Z,3.6
2023-01-26T09:33:04.765Z,3.3
2023-01-26T09:34:21.005Z,3.6
2023-01-26T09:35:37.242Z,2.6
2023-01-26T09:36:53.483Z,3.3
2023-01-26T09:38:09.717Z,2.7
2023-01-26T09:39:25.963Z,3.3
2023-01-26T09:40:42.197Z,3.6
2023-01-26T09:41:58.445Z,3.3
2023-01-26T09:43:14.680Z,3.4
2023-01-26T09:44:30.931Z,3.3
2023-01-26T09:45:47.159Z,3.3
2023-01-26T09:47:02.424Z,3.1
2023-01-26T09:48:18.665Z,3.7
2023-01-26T09:49:34.906Z,3.5
2023-01-26T09:50:51.145Z,3.9
2023-01-26T09:52:07.375Z,4.2
2023-01-26T09:53:23.628Z,3.8
2023-01-26T09:54:39.865Z,3.7
2023-01-26T09:55:56.101Z,4.5
2023-01-26T09:57:12.342Z,4.2
2023-01-26T09:58:28.566Z,3.5
2023-01-26T09:59:44.819Z,3.5
2023-01-26T10:02:17.295Z,3.4
2023-01-26T10:03:32.558Z,2.8
2023-01-26T10:04:48.788Z,3.1
2023-01-26T10:06:05.021Z,3
2023-01-26T10:07:21.278Z,3.4
2023-01-26T10:08:37.512Z,3.7
2023-01-26T10:09:53.750Z,3.8
2023-01-26T10:11:09.989Z,3.9
2023-01-26T10:12:26.236Z,3.6
2023-01-26T10:13:42.458Z,3.5
2023-01-26T10:14:58.714Z,3.8
2023-01-26T10:16:14.938Z,4.4
2023-01-26T10:17:31.196Z,3.8
2023-01-26T10:18:47.426Z,4.5
2023-01-26T10:20:02.690Z,3.9
2023-01-26T10:21:18.915Z,4.1
2023-01-26T10:22:35.169Z,4.7
2023-01-26T10:23:51.405Z,4.1
2023-01-26T10:25:07.650Z,4.5
2023-01-26T10:26:23.881Z,4.1
2023-01-26T10:27:40.119Z,4.5
2023-01-26T10:28:56.356Z,4.4
2023-01-26T10:30:12.606Z,4.7
2023-01-26T10:31:28.840Z,4.3
2023-01-26T10:32:45.075Z,4.1
2023-01-26T10:34:01.326Z,4.3
2023-01-26T10:35:17.560Z,4.8
2023-01-26T10:36:32.817Z,4.7
2023-01-26T10:37:49.062Z,4.6
2023-01-26T10:39:05.295Z,4.4
2023-01-26T10:40:21.542Z,4.5
2023-01-26T10:41:37.766Z,4.6
2023-01-26T10:42:54.022Z,4.6
2023-01-26T10:44:10.256Z,4.4
2023-01-26T10:45:26.499Z,4.2
2023-01-26T10:46:42.726Z,4.7
2023-01-26T10:47:58.976Z,4.9
2023-01-26T10:49:15.206Z,4.8
2023-01-26T10:50:31.456Z,4.2
2023-01-26T10:51:47.692Z,4.4
2023-01-26T10:53:02.954Z,4.1
2023-01-26T10:54:19.177Z,4.2
2023-01-26T10:55:35.434Z,4.6
2023-01-26T10:56:51.660Z,4.4
2023-01-26T10:58:07.902Z,4.7
2023-01-26T10:59:24.136Z,4.8
2023-01-26T11:00:40.390Z,4.6
2023-01-26T11:01:56.618Z,4.7
2023-01-26T11:03:12.853Z,5.2
2023-01-26T11:04:29.109Z,4.5
2023-01-26T11:05:45.353Z,4.4
2023-01-26T11:07:01.584Z,4.6
2023-01-26T11:08:17.823Z,4.3
2023-01-26T11:09:33.077Z,4.3
2023-01-26T11:10:49.324Z,4.1
2023-01-26T11:12:05.564Z,4.3
2023-01-26T11:13:21.792Z,3.8
2023-01-26T11:14:38.028Z,3.8
2023-01-26T11:15:54.281Z,3.9
2023-01-26T11:18:26.754Z,3.1
2023-01-26T11:19:42.991Z,3.5
2023-01-26T11:20:59.235Z,3.2
2023-01-26T11:22:15.466Z,3.3
2023-01-26T11:23:31.710Z,3.1
2023-01-26T11:24:47.947Z,3.6
2023-01-26T11:26:03.207Z,3.2
2023-01-26T11:27:19.439Z,3.6
2023-01-26T11:28:35.682Z,3.4
2023-01-26T11:29:51.929Z,3.7
2023-01-26T11:31:08.172Z,3.6
2023-01-26T11:32:24.410Z,3.4
2023-01-26T11:33:40.639Z,3.2
2023-01-26T11:34:56.878Z,3.4
2023-01-26T11:36:13.118Z,3.2
2023-01-26T11:37:29.356Z,3.2
2023-01-26T11:38:45.597Z,2.9
2023-01-26T11:40:01.851Z,3.4
2023-01-26T11:41:18.075Z,3
2023-01-26T11:42:33.345Z,2.6
2023-01-26T11:43:49.589Z,2.7
2023-01-26T11:45:05.820Z,3
2023-01-26T11:46:22.058Z,3
2023-01-26T11:47:38.295Z,3
2023-01-26T11:48:54.547Z,3
2023-01-26T11:50:10.778Z,3.1
2023-01-26T11:51:27.016Z,2.6
2023-01-26T11:52:43.264Z,3.1
2023-01-26T11:53:59.507Z,3.1
2023-01-26T11:55:15.742Z,2.7
2023-01-26T11:56:31.981Z,2.7
2023-01-26T11:57:48.226Z,3.1
2023-01-26T11:59:03.480Z,3.1
2023-01-26T12:00:19.717Z,3.7
2023-01-26T12:01:35.951Z,3.1
2023-01-26T12:02:52.194Z,3.1
2023-01-26T12:04:08.439Z,2.8
2023-01-26T12:05:24.665Z,3
2023-01-26T12:06:40.907Z,2.9
2023-01-26T12:07:57.149Z,3.1
2023-01-26T12:09:13.398Z,2.8
2023-01-26T12:10:29.635Z,2.9
2023-01-26T12:11:45.875Z,3.2
2023-01-26T12:13:02.101Z,4
2023-01-26T12:14:18.348Z,3.4
2023-01-26T12:15:33.599Z,3.7
2023-01-26T12:16:49.848Z,3.4
2023-01-26T12:18:06.083Z,4
2023-01-26T12:19:22.329Z,3.8
2023-01-26T12:20:38.567Z,3.4
2023-01-26T12:21:54.804Z,3.7
2023-01-26T12:23:11.033Z,3.1
2023-01-26T12:24:27.281Z,3.3
2023-01-26T12:25:43.515Z,3.6
2023-01-26T12:26:59.752Z,3
2023-01-26T12:28:15.988Z,3.6
2023-01-26T12:29:32.241Z,3.1
2023-01-26T12:30:48.479Z,2.9
2023-01-26T12:32:03.736Z,3.1
2023-01-26T12:33:19.975Z,2.7
2023-01-26T12:34:36.200Z,3.8
2023-01-26T12:35:52.453Z,3.8
2023-01-26T12:37:08.686Z,3.5
2023-01-26T12:38:24.931Z,4.2
2023-01-26T12:39:40.182Z,4.4
2023-01-26T12:40:56.429Z,10.1
2023-01-26T12:42:12.678Z,8.1
2023-01-26T12:43:28.916Z,5.8
2023-01-26T12:44:45.143Z,3.9
2023-01-26T12:46:01.390Z,3.6
2023-01-26T12:47:17.633Z,3.2
2023-01-26T12:48:33.864Z,3.6
2023-01-26T12:49:50.109Z,3.1
2023-01-26T12:51:06.342Z,3.2
2023-01-26T12:52:22.578Z,3.1
2023-01-26T12:53:38.822Z,3.2
2023-01-26T12:54:55.061Z,3.7
2023-01-26T12:56:10.320Z,3.4
2023-01-26T12:57:26.558Z,3.2
2023-01-26T12:58:42.802Z,3.5
2023-01-26T12:59:59.036Z,3.7
2023-01-26T13:01:15.279Z,3.5
2023-01-26T13:02:31.525Z,3.9
2023-01-26T13:03:47.765Z,4.6
2023-01-26T13:05:04.000Z,3.7
2023-01-26T13:06:20.233Z,5
2023-01-26T13:07:36.479Z,4.3
2023-01-26T13:08:52.719Z,4.3
2023-01-26T13:10:08.963Z,3.6
2023-01-26T13:11:25.194Z,4.1
2023-01-26T13:12:40.443Z,4
2023-01-26T13:13:56.695Z,4
2023-01-26T13:15:12.927Z,3.5
2023-01-26T13:16:29.174Z,3.1
2023-01-26T13:17:45.410Z,3.6
2023-01-26T13:19:01.641Z,3.1
2023-01-26T13:20:17.895Z,3.9
2023-01-26T13:21:34.133Z,3.7
2023-01-26T13:22:50.371Z,3.7
2023-01-26T13:24:06.605Z,3.7
2023-01-26T13:26:39.086Z,3.3
2023-01-26T13:27:55.325Z,3.9
2023-01-26T13:29:10.589Z,3.9
2023-01-26T13:30:26.813Z,4
2023-01-26T13:31:43.050Z,6.4
2023-01-26T13:32:59.288Z,4.3
2023-01-26T13:34:15.539Z,3.4
2023-01-26T13:35:31.773Z,4
2023-01-26T13:36:48.007Z,3.6
2023-01-26T13:38:04.251Z,4
2023-01-26T13:39:20.500Z,4.5
2023-01-26T13:40:36.726Z,3.8
2023-01-26T13:41:52.982Z,4.6
2023-01-26T13:43:09.214Z,4.7
2023-01-26T13:44:25.460Z,5.8
2023-01-26T13:45:40.703Z,5.7
2023-01-26T13:46:56.946Z,4.9
2023-01-26T13:48:13.183Z,5.4
2023-01-26T13:49:29.438Z,5.3
2023-01-26T13:50:45.670Z,5.6
2023-01-26T13:52:01.897Z,4.7
2023-01-26T13:53:18.156Z,4.1
2023-01-26T13:54:34.388Z,4.4
2023-01-26T13:55:50.621Z,5.1
2023-01-26T13:57:06.871Z,5.2
2023-01-26T13:58:23.116Z,5.1
2023-01-26T13:59:39.337Z,4.8
2023-01-26T14:00:55.584Z,5.6
2023-01-26T14:02:10.841Z,5.3
2023-01-26T14:03:27.084Z,6.2
2023-01-26T14:04:43.312Z,5.9
2023-01-26T14:05:59.558Z,5.9
2023-01-26T14:07:15.801Z,4.8
2023-01-26T14:08:32.039Z,5.6
2023-01-26T14:09:48.275Z,4.7
2023-01-26T14:11:04.521Z,5.4
2023-01-26T14:12:20.765Z,5.1
2023-01-26T14:13:36.992Z,5.1
2023-01-26T14:14:53.235Z,5.3
2023-01-26T14:16:09.479Z,4.9
2023-01-26T14:17:25.718Z,5.4
2023-01-26T14:18:40.966Z,4.4
2023-01-26T14:19:57.214Z,5.7
2023-01-26T14:21:13.447Z,12.4
2023-01-26T14:22:29.687Z,7.1
2023-01-26T14:23:45.920Z,5.3
2023-01-26T14:25:02.167Z,5.8
2023-01-26T14:26:18.407Z,5.3
2023-01-26T14:27:34.650Z,4.8
2023-01-26T14:28:50.894Z,5.1
2023-01-26T14:30:07.121Z,4.9
2023-01-26T14:31:23.375Z,5.5
2023-01-26T14:32:39.595Z,6.8
2023-01-26T14:33:55.839Z,7.6
2023-01-26T14:35:11.094Z,7.2
2023-01-26T14:36:27.335Z,6.2
2023-01-26T14:37:43.589Z,5.8
2023-01-26T14:38:59.810Z,6
2023-01-26T14:40:16.051Z,6.2
2023-01-26T14:41:32.310Z,5.8
2023-01-26T14:42:48.536Z,6
2023-01-26T14:44:04.788Z,5.7
2023-01-26T14:45:21.029Z,5.8
2023-01-26T14:46:37.253Z,6.3
2023-01-26T14:47:53.493Z,5.9
2023-01-26T14:49:09.738Z,7.3
2023-01-26T14:50:25.986Z,8.9
2023-01-26T14:51:41.238Z,11
2023-01-26T14:52:57.477Z,11.1
2023-01-26T14:54:13.711Z,9.2
2023-01-26T14:56:46.188Z,9.1
2023-01-26T14:58:02.427Z,11.4
2023-01-26T14:59:18.669Z,8.1
2023-01-26T15:00:34.916Z,8.8
2023-01-26T15:01:51.142Z,7.2
2023-01-26T15:03:07.389Z,7.1
2023-01-26T15:04:23.631Z,7.7
2023-01-26T15:05:39.876Z,7.2
2023-01-26T15:06:56.113Z,6.5
2023-01-26T15:08:11.368Z,6.5
2023-01-26T15:09:27.592Z,6.5
2023-01-26T15:10:43.844Z,6.6
2023-01-26T15:12:00.080Z,7.7
2023-01-26T15:13:16.321Z,7.2
2023-01-26T15:14:32.563Z,8
2023-01-26T15:15:48.810Z,6.9
2023-01-26T15:17:05.038Z,7.8
2023-01-26T15:18:21.272Z,9.5
2023-01-26T15:19:37.519Z,9.1
2023-01-26T15:20:53.758Z,7.5
2023-01-26T15:22:10.002Z,8.4
2023-01-26T15:23:26.239Z,8.3
2023-01-26T15:24:41.489Z,7.3
2023-01-26T15:25:57.740Z,6
2023-01-26T15:27:13.983Z,5.7
2023-01-26T15:28:30.215Z,6.5
2023-01-26T15:29:46.456Z,6.7
2023-01-26T15:31:02.692Z,6.2
2023-01-26T15:32:18.938Z,6.3
2023-01-26T15:33:35.177Z,7
2023-01-26T15:34:51.407Z,6.2
2023-01-26T15:36:07.656Z,5.8
2023-01-26T15:37:23.000Z,5.9
2023-01-26T15:38:40.124Z,5.4
2023-01-26T15:39:56.362Z,5.8
2023-01-26T15:41:11.626Z,6.1
2023-01-26T15:42:27.873Z,6.2
2023-01-26T15:43:44.115Z,6.3
2023-01-26T15:45:00.347Z,5.2
2023-01-26T15:46:16.581Z,5.8
2023-01-26T15:47:32.834Z,5.8
2023-01-26T15:48:49.056Z,5.5
2023-01-26T15:50:05.294Z,7.4
2023-01-26T15:51:21.544Z,6.3
2023-01-26T15:52:37.778Z,6.4
2023-01-26T15:53:54.016Z,5.8
2023-01-26T15:55:10.265Z,6
2023-01-26T15:56:26.510Z,6.4
2023-01-26T15:57:41.754Z,6.8
2023-01-26T15:58:57.997Z,12.1
2023-01-26T16:00:14.232Z,18.6
2023-01-26T16:01:30.473Z,12.9
2023-01-26T16:02:46.722Z,10.4
2023-01-26T16:04:02.975Z,11.6
2023-01-26T16:05:19.201Z,9.5
2023-01-26T16:06:35.491Z,8.2
2023-01-26T16:07:51.746Z,6.8
2023-01-26T16:09:07.982Z,6.7
2023-01-26T16:10:24.230Z,6.8
2023-01-26T16:11:40.444Z,6.6
2023-01-26T16:12:56.680Z,6.6
2023-01-26T16:14:11.934Z,6.4
2023-01-26T16:15:28.230Z,6.3
2023-01-26T16:16:44.510Z,6.2
2023-01-26T16:18:00.806Z,8.4
2023-01-26T16:19:17.105Z,9.5
2023-01-26T16:20:33.397Z,8.2
2023-01-26T16:21:49.687Z,7.7
2023-01-26T16:23:05.995Z,9.4
2023-01-26T16:24:22.271Z,6.5
2023-01-26T16:25:38.571Z,6.8
2023-01-26T16:26:54.878Z,6.7
2023-01-26T16:28:11.169Z,8.4
2023-01-26T16:29:27.458Z,8.2
2023-01-26T16:30:42.773Z,7.4
2023-01-26T16:31:59.050Z,7.2
2023-01-26T16:33:15.362Z,7.2
2023-01-26T16:34:31.651Z,6.9
2023-01-26T16:35:47.947Z,6.4
2023-01-26T16:37:04.239Z,6.7
2023-01-26T16:38:20.533Z,6.9
2023-01-26T16:39:36.820Z,9.4
2023-01-26T16:40:53.110Z,23
2023-01-26T16:42:09.418Z,27.2
2023-01-26T16:43:25.694Z,29
2023-01-26T16:44:41.989Z,12.9
2023-01-26T16:45:58.294Z,6.3
2023-01-26T16:47:13.594Z,5.3
2023-01-26T16:48:29.888Z,5.2
2023-01-26T16:49:46.194Z,6.6
2023-01-26T16:52:18.783Z,6.2
2023-01-26T16:53:35.071Z,6.2
2023-01-26T16:54:50.374Z,8.1
2023-01-26T16:56:06.680Z,8.6
2023-01-26T16:57:22.969Z,7.6
2023-01-26T16:58:39.257Z,9.1
2023-01-26T16:59:55.558Z,6.7
2023-01-26T17:01:11.855Z,7.9
2023-01-26T17:02:28.136Z,12.5
2023-01-26T17:03:44.442Z,9.2
2023-01-26T17:05:00.735Z,5.7
2023-01-26T17:06:17.038Z,5.4
2023-01-26T17:07:33.332Z,5.6
2023-01-26T17:08:49.609Z,6.6
2023-01-26T17:10:05.903Z,5.3
2023-01-26T17:11:21.217Z,4.8
2023-01-26T17:12:37.521Z,5.1
2023-01-26T17:13:53.801Z,5.7
2023-01-26T17:15:10.101Z,5.5
2023-01-26T17:16:26.395Z,6.4
2023-01-26T17:17:42.695Z,6.1
2023-01-26T17:18:58.977Z,6.3
2023-01-26T17:20:15.269Z,6
2023-01-26T17:21:31.575Z,6.3
2023-01-26T17:22:47.854Z,6.1
2023-01-26T17:24:04.155Z,6.2
2023-01-26T17:25:20.448Z,5.5
2023-01-26T17:26:36.740Z,5.3
2023-01-26T17:27:52.054Z,5.2
2023-01-26T17:29:08.348Z,5.1
2023-01-26T17:30:24.638Z,5.5
2023-01-26T17:31:40.938Z,5.3
2023-01-26T17:32:57.230Z,5.8
2023-01-26T17:34:13.519Z,4.8
2023-01-26T17:35:29.804Z,5.2
2023-01-26T17:36:46.103Z,5
2023-01-26T17:38:02.404Z,5.4
2023-01-26T17:39:18.688Z,5.7
2023-01-26T17:40:34.983Z,5.6